createdAt,value
2023-01-07T00:00:21.136Z,995.04
2023-01-07T00:01:21.082Z,995.07
2023-01-07T00:02:21.072Z,995.08
2023-01-07T00:03:21.118Z,995.06
2023-01-07T00:04:21.038Z,995.08
2023-01-07T00:05:21.078Z,995.07
2023-01-07T00:06:21.060Z,995.07
2023-01-07T00:07:21.028Z,995.10
2023-01-07T00:08:21.036Z,995.06
2023-01-07T00:09:21.005Z,995.05
2023-01-07T00:10:20.991Z,995.03
2023-01-07T00:11:20.986Z,995.06
2023-01-07T00:12:21.146Z,995.04
2023-01-07T00:13:20.948Z,995.04
2023-01-07T00:14:20.945Z,995.07
2023-01-07T00:15:20.962Z,995.04
2023-01-07T00:16:21.021Z,995.06
2023-01-07T00:17:20.929Z,995.03
2023-01-07T00:18:20.913Z,994.98
2023-01-07T00:19:20.910Z,995.02
2023-01-07T00:20:20.909Z,995.02
2023-01-07T00:21:20.889Z,995.03
2023-01-07T00:22:20.880Z,995.04
2023-01-07T00:23:20.901Z,995.00
2023-01-07T00:24:20.840Z,995.01
2023-01-07T00:25:20.836Z,995.01
2023-01-07T00:26:20.825Z,995.01
2023-01-07T00:27:20.847Z,995.01
2023-01-07T00:28:20.786Z,995.00
2023-01-07T00:29:20.801Z,995.03
2023-01-07T00:30:20.766Z,994.97
2023-01-07T00:31:20.809Z,994.99
2023-01-07T00:32:20.770Z,995.01
2023-01-07T00:33:20.790Z,994.98
2023-01-07T00:34:20.747Z,995.02
2023-01-07T00:35:20.730Z,994.99
2023-01-07T00:36:20.710Z,994.97
2023-01-07T00:37:20.765Z,994.95
2023-01-07T00:38:20.709Z,994.93
2023-01-07T00:39:20.740Z,994.93
2023-01-07T00:40:20.700Z,994.94
2023-01-07T00:41:20.670Z,994.91
2023-01-07T00:42:20.653Z,994.93
2023-01-07T00:43:20.658Z,994.89
2023-01-07T00:44:20.656Z,994.89
2023-01-07T00:45:20.608Z,994.92
2023-01-07T00:46:20.660Z,994.87
2023-01-07T00:47:20.610Z,994.86
2023-01-07T00:48:20.619Z,994.88
2023-01-07T00:49:20.599Z,994.88
2023-01-07T00:50:20.591Z,994.87
2023-01-07T00:51:20.562Z,994.87
2023-01-07T00:52:20.580Z,994.85
2023-01-07T00:53:20.751Z,994.87
2023-01-07T00:54:20.547Z,994.84
2023-01-07T00:55:20.523Z,994.80
2023-01-07T00:56:20.535Z,994.83
2023-01-07T00:57:20.490Z,994.83
2023-01-07T00:58:20.498Z,994.82
2023-01-07T00:59:20.500Z,994.79
2023-01-07T01:00:20.478Z,994.81
2023-01-07T01:01:20.567Z,994.80
2023-01-07T01:02:20.565Z,994.85
2023-01-07T01:03:20.429Z,994.81
2023-01-07T01:04:20.430Z,994.81
2023-01-07T01:05:20.489Z,994.78
2023-01-07T01:06:20.429Z,994.80
2023-01-07T01:07:20.393Z,994.77
2023-01-07T01:08:20.406Z,994.77
2023-01-07T01:09:20.381Z,994.77
2023-01-07T01:10:20.393Z,994.73
2023-01-07T01:11:20.379Z,994.74
2023-01-07T01:12:20.350Z,994.72
2023-01-07T01:13:20.415Z,994.74
2023-01-07T01:14:20.322Z,994.73
2023-01-07T01:15:20.299Z,994.73
2023-01-07T01:16:20.379Z,994.76
2023-01-07T01:17:20.308Z,994.77
2023-01-07T01:18:20.289Z,994.83
2023-01-07T01:19:20.278Z,994.85
2023-01-07T01:20:20.313Z,994.83
2023-01-07T01:21:20.841Z,994.85
2023-01-07T01:22:20.259Z,994.84
2023-01-07T01:23:20.220Z,994.86
2023-01-07T01:24:20.233Z,994.83
2023-01-07T01:25:20.220Z,994.87
2023-01-07T01:26:20.290Z,994.89
2023-01-07T01:27:20.230Z,994.81
2023-01-07T01:28:20.198Z,994.85
2023-01-07T01:29:20.161Z,994.80
2023-01-07T01:30:20.188Z,994.81
2023-01-07T01:31:20.224Z,994.84
2023-01-07T01:32:20.151Z,994.85
2023-01-07T01:33:20.178Z,994.81
2023-01-07T01:34:20.128Z,994.84
2023-01-07T01:35:20.111Z,994.80
2023-01-07T01:36:20.131Z,994.78
2023-01-07T01:37:20.111Z,994.78
2023-01-07T01:38:20.110Z,994.82
2023-01-07T01:39:20.080Z,994.81
2023-01-07T01:40:20.070Z,994.85
2023-01-07T01:41:20.049Z,994.80
2023-01-07T01:42:20.088Z,994.77
2023-01-07T01:43:20.051Z,994.73
2023-01-07T01:44:20.039Z,994.71
2023-01-07T01:45:20.008Z,994.70
2023-01-07T01:46:20.031Z,994.70
2023-01-07T01:47:19.990Z,994.70
2023-01-07T01:48:20.001Z,994.67
2023-01-07T01:49:19.964Z,994.66
2023-01-07T01:50:20.387Z,994.63
2023-01-07T01:51:19.947Z,994.61
2023-01-07T01:52:19.937Z,994.60
2023-01-07T01:53:19.920Z,994.57
2023-01-07T01:54:19.935Z,994.62
2023-01-07T01:55:19.918Z,994.58
2023-01-07T01:56:24.660Z,994.61
2023-01-07T01:57:19.879Z,994.67
2023-01-07T01:58:19.882Z,994.65
2023-01-07T01:59:19.851Z,994.69
2023-01-07T02:00:20.314Z,994.61
2023-01-07T02:01:20.014Z,994.63
2023-01-07T02:02:19.862Z,994.62
2023-01-07T02:03:19.808Z,994.63
2023-01-07T02:04:19.885Z,994.60
2023-01-07T02:05:19.813Z,994.57
2023-01-07T02:06:19.856Z,994.59
2023-01-07T02:07:19.772Z,994.57
2023-01-07T02:08:19.778Z,994.55
2023-01-07T02:09:20.269Z,994.55
2023-01-07T02:10:19.773Z,994.54
2023-01-07T02:11:19.754Z,994.53
2023-01-07T02:12:19.746Z,994.58
2023-01-07T02:13:19.699Z,994.57
2023-01-07T02:14:19.741Z,994.56
2023-01-07T02:15:19.693Z,994.58
2023-01-07T02:16:19.760Z,994.54
2023-01-07T02:17:19.677Z,994.52
2023-01-07T02:18:19.695Z,994.53
2023-01-07T02:19:19.653Z,994.48
2023-01-07T02:20:19.801Z,994.45
2023-01-07T02:21:19.642Z,994.47
2023-01-07T02:22:19.642Z,994.45
2023-01-07T02:23:19.637Z,994.44
2023-01-07T02:24:19.611Z,994.43
2023-01-07T02:25:19.602Z,994.45
2023-01-07T02:26:19.757Z,994.42
2023-01-07T02:27:21.054Z,994.48
2023-01-07T02:28:19.582Z,994.41
2023-01-07T02:29:19.607Z,994.43
2023-01-07T02:30:19.554Z,994.43
2023-01-07T02:31:19.586Z,994.46
2023-01-07T02:32:19.562Z,994.39
2023-01-07T02:33:19.603Z,994.41
2023-01-07T02:34:19.512Z,994.43
2023-01-07T02:35:19.491Z,994.46
2023-01-07T02:36:19.496Z,994.40
2023-01-07T02:37:19.499Z,994.39
2023-01-07T02:38:19.566Z,994.39
2023-01-07T02:39:19.465Z,994.36
2023-01-07T02:40:19.449Z,994.38
2023-01-07T02:41:19.421Z,994.36
2023-01-07T02:42:19.820Z,994.36
2023-01-07T02:43:19.410Z,994.34
2023-01-07T02:44:19.413Z,994.32
2023-01-07T02:45:19.387Z,994.31
2023-01-07T02:46:19.409Z,994.30
2023-01-07T02:47:19.390Z,994.31
2023-01-07T02:48:19.381Z,994.32
2023-01-07T02:49:19.356Z,994.28
2023-01-07T02:50:19.342Z,994.32
2023-01-07T02:51:19.347Z,994.30
2023-01-07T02:52:19.352Z,994.30
2023-01-07T02:53:19.303Z,994.32
2023-01-07T02:54:19.311Z,994.30
2023-01-07T02:55:19.320Z,994.30
2023-01-07T02:56:19.358Z,994.26
2023-01-07T02:57:19.273Z,994.27
2023-01-07T02:58:19.295Z,994.28
2023-01-07T02:59:19.255Z,994.31
2023-01-07T03:00:19.273Z,994.26
2023-01-07T03:01:19.347Z,994.25
2023-01-07T03:02:19.234Z,994.25
2023-01-07T03:03:19.205Z,994.29
2023-01-07T03:04:19.369Z,994.27
2023-01-07T03:05:19.194Z,994.29
2023-01-07T03:06:19.183Z,994.23
2023-01-07T03:07:19.162Z,994.23
2023-01-07T03:08:19.164Z,994.28
2023-01-07T03:09:19.124Z,994.22
2023-01-07T03:10:19.161Z,994.27
2023-01-07T03:11:19.123Z,994.22
2023-01-07T03:12:19.123Z,994.17
2023-01-07T03:13:19.132Z,994.16
2023-01-07T03:14:19.123Z,994.20
2023-01-07T03:15:19.323Z,994.15
2023-01-07T03:16:19.113Z,994.16
2023-01-07T03:17:19.092Z,994.16
2023-01-07T03:18:19.062Z,994.14
2023-01-07T03:19:19.060Z,994.13
2023-01-07T03:20:19.163Z,994.11
2023-01-07T03:21:19.069Z,994.14
2023-01-07T03:22:19.015Z,994.10
2023-01-07T03:23:18.992Z,994.11
2023-01-07T03:24:18.989Z,994.08
2023-01-07T03:25:18.983Z,994.06
2023-01-07T03:26:18.991Z,994.06
2023-01-07T03:27:18.941Z,994.03
2023-01-07T03:28:18.954Z,994.01
2023-01-07T03:29:18.951Z,993.99
2023-01-07T03:30:19.366Z,993.98
2023-01-07T03:31:18.993Z,994.01
2023-01-07T03:32:18.933Z,993.98
2023-01-07T03:33:18.893Z,993.99
2023-01-07T03:34:18.906Z,993.96
2023-01-07T03:35:18.874Z,993.96
2023-01-07T03:36:18.932Z,993.95
2023-01-07T03:37:18.853Z,993.98
2023-01-07T03:38:18.842Z,993.96
2023-01-07T03:39:18.834Z,993.99
2023-01-07T03:40:18.838Z,994.00
2023-01-07T03:41:19.353Z,993.99
2023-01-07T03:42:18.839Z,993.98
2023-01-07T03:43:18.772Z,993.99
2023-01-07T03:44:18.815Z,993.96
2023-01-07T03:45:18.767Z,993.93
2023-01-07T03:46:18.784Z,993.95
2023-01-07T03:47:18.793Z,993.94
2023-01-07T03:48:18.757Z,993.89
2023-01-07T03:49:18.725Z,993.98
2023-01-07T03:50:18.724Z,993.89
2023-01-07T03:51:18.706Z,993.89
2023-01-07T03:52:18.711Z,993.86
2023-01-07T03:53:18.705Z,993.88
2023-01-07T03:54:18.683Z,993.87
2023-01-07T03:55:18.644Z,993.88
2023-01-07T03:56:18.665Z,993.85
2023-01-07T03:57:18.695Z,993.86
2023-01-07T03:58:18.674Z,993.85
2023-01-07T03:59:18.652Z,993.82
2023-01-07T04:00:18.674Z,993.86
2023-01-07T04:01:18.668Z,993.78
2023-01-07T04:02:18.646Z,993.80
2023-01-07T04:03:18.611Z,993.78
2023-01-07T04:04:18.624Z,993.78
2023-01-07T04:05:18.591Z,993.75
2023-01-07T04:06:18.564Z,993.75
2023-01-07T04:07:18.531Z,993.76
2023-01-07T04:09:14.557Z,993.76
2023-01-07T04:10:14.543Z,993.77
2023-01-07T04:11:14.532Z,993.69
2023-01-07T04:12:14.506Z,993.74
2023-01-07T04:13:14.498Z,993.69
2023-01-07T04:14:14.497Z,993.70
2023-01-07T04:15:14.490Z,993.68
2023-01-07T04:16:14.507Z,993.70
2023-01-07T04:17:14.497Z,993.68
2023-01-07T04:18:14.435Z,993.65
2023-01-07T04:19:14.442Z,993.62
2023-01-07T04:20:14.417Z,993.57
2023-01-07T04:21:14.433Z,993.58
2023-01-07T04:22:14.392Z,993.55
2023-01-07T04:23:14.463Z,993.61
2023-01-07T04:24:14.375Z,993.59
2023-01-07T04:25:14.371Z,993.53
2023-01-07T04:26:14.344Z,993.52
2023-01-07T04:27:14.345Z,993.51
2023-01-07T04:28:14.332Z,993.50
2023-01-07T04:29:14.369Z,993.47
2023-01-07T04:30:14.323Z,993.47
2023-01-07T04:31:14.418Z,993.40
2023-01-07T04:32:14.287Z,993.48
2023-01-07T04:33:14.313Z,993.44
2023-01-07T04:34:14.281Z,993.41
2023-01-07T04:35:14.297Z,993.43
2023-01-07T04:36:14.281Z,993.43
2023-01-07T04:37:14.258Z,993.45
2023-01-07T04:38:14.214Z,993.44
2023-01-07T04:39:14.225Z,993.49
2023-01-07T04:40:14.216Z,993.44
2023-01-07T04:41:14.255Z,993.42
2023-01-07T04:42:14.194Z,993.39
2023-01-07T04:43:14.194Z,993.41
2023-01-07T04:44:14.172Z,993.38
2023-01-07T04:45:14.208Z,993.42
2023-01-07T04:46:14.205Z,993.39
2023-01-07T04:47:14.205Z,993.35
2023-01-07T04:48:14.126Z,993.36
2023-01-07T04:49:14.156Z,993.41
2023-01-07T04:50:14.136Z,993.34
2023-01-07T04:51:14.116Z,993.35
2023-01-07T04:52:14.080Z,993.33
2023-01-07T04:53:14.095Z,993.30
2023-01-07T04:54:14.276Z,993.32
2023-01-07T04:55:14.118Z,993.32
2023-01-07T04:56:14.046Z,993.32
2023-01-07T04:57:14.068Z,993.32
2023-01-07T04:58:14.045Z,993.31
2023-01-07T04:59:14.016Z,993.32
2023-01-07T05:00:13.991Z,993.26
2023-01-07T05:01:14.192Z,993.31
2023-01-07T05:02:14.009Z,993.27
2023-01-07T05:03:14.019Z,993.29
2023-01-07T05:04:14.030Z,993.30
2023-01-07T05:05:13.981Z,993.32
2023-01-07T05:06:13.937Z,993.29
2023-01-07T05:07:13.937Z,993.30
2023-01-07T05:08:13.919Z,993.28
2023-01-07T05:09:13.934Z,993.29
2023-01-07T05:10:13.896Z,993.28
2023-01-07T05:11:13.916Z,993.27
2023-01-07T05:12:13.879Z,993.23
2023-01-07T05:13:13.884Z,993.24
2023-01-07T05:14:13.875Z,993.21
2023-01-07T05:15:13.847Z,993.22
2023-01-07T05:16:13.833Z,993.22
2023-01-07T05:17:13.837Z,993.13
2023-01-07T05:18:13.821Z,993.11
2023-01-07T05:19:14.091Z,993.10
2023-01-07T05:20:13.797Z,993.08
2023-01-07T05:21:13.776Z,993.16
2023-01-07T05:22:13.757Z,993.14
2023-01-07T05:23:13.767Z,993.12
2023-01-07T05:24:13.745Z,993.14
2023-01-07T05:25:13.762Z,993.07
2023-01-07T05:26:13.741Z,993.04
2023-01-07T05:27:13.743Z,993.01
2023-01-07T05:28:13.707Z,993.04
2023-01-07T05:29:13.723Z,993.01
2023-01-07T05:30:13.740Z,993.03
2023-01-07T05:31:13.757Z,993.00
2023-01-07T05:32:13.658Z,992.98
2023-01-07T05:33:13.682Z,992.97
2023-01-07T05:34:13.667Z,992.99
2023-01-07T05:35:13.645Z,992.97
2023-01-07T05:36:13.616Z,992.92
2023-01-07T05:37:13.617Z,992.96
2023-01-07T05:38:13.606Z,992.93
2023-01-07T05:39:13.616Z,992.95
2023-01-07T05:40:13.622Z,992.97
2023-01-07T05:41:13.598Z,992.97
2023-01-07T05:42:13.557Z,992.93
2023-01-07T05:43:13.558Z,992.91
2023-01-07T05:44:13.549Z,992.90
2023-01-07T05:45:13.560Z,992.92
2023-01-07T05:46:13.564Z,992.90
2023-01-07T05:47:13.546Z,992.89
2023-01-07T05:48:13.502Z,992.92
2023-01-07T05:49:13.502Z,992.91
2023-01-07T05:50:13.497Z,992.88
2023-01-07T05:51:13.498Z,992.83
2023-01-07T05:52:13.459Z,992.86
2023-01-07T05:53:13.451Z,992.82
2023-01-07T05:54:13.489Z,992.80
2023-01-07T05:55:13.437Z,992.82
2023-01-07T05:56:13.438Z,992.80
2023-01-07T05:57:13.439Z,992.79
2023-01-07T05:58:13.409Z,992.79
2023-01-07T05:59:13.410Z,992.85
2023-01-07T06:00:13.368Z,992.78
2023-01-07T06:01:13.468Z,992.78
2023-01-07T06:02:13.373Z,992.79
2023-01-07T06:03:13.386Z,992.77
2023-01-07T06:04:13.812Z,992.77
2023-01-07T06:05:13.376Z,992.77
2023-01-07T06:06:13.307Z,992.81
2023-01-07T06:07:13.306Z,992.78
2023-01-07T06:08:13.296Z,992.79
2023-01-07T06:09:13.339Z,992.81
2023-01-07T06:10:13.270Z,992.76
2023-01-07T06:11:13.297Z,992.81
2023-01-07T06:12:13.267Z,992.81
2023-01-07T06:13:13.258Z,992.78
2023-01-07T06:14:13.259Z,992.76
2023-01-07T06:15:13.254Z,992.76
2023-01-07T06:16:13.280Z,992.76
2023-01-07T06:17:13.223Z,992.75
2023-01-07T06:18:13.188Z,992.76
2023-01-07T06:19:13.229Z,992.75
2023-01-07T06:20:13.229Z,992.75
2023-01-07T06:21:13.187Z,992.80
2023-01-07T06:22:13.147Z,992.79
2023-01-07T06:23:13.153Z,992.82
2023-01-07T06:24:13.178Z,992.80
2023-01-07T06:25:13.149Z,992.75
2023-01-07T06:26:13.136Z,992.71
2023-01-07T06:27:13.156Z,992.72
2023-01-07T06:28:13.114Z,992.69
2023-01-07T06:29:13.099Z,992.77
2023-01-07T06:30:13.097Z,992.68
2023-01-07T06:31:13.102Z,992.69
2023-01-07T06:32:13.066Z,992.67
2023-01-07T06:33:13.055Z,992.67
2023-01-07T06:34:13.027Z,992.65
2023-01-07T06:35:13.055Z,992.67
2023-01-07T06:36:13.028Z,992.66
2023-01-07T06:37:13.029Z,992.72
2023-01-07T06:38:12.995Z,992.68
2023-01-07T06:39:13.000Z,992.66
2023-01-07T06:40:12.977Z,992.63
2023-01-07T06:41:12.989Z,992.64
2023-01-07T06:42:12.989Z,992.63
2023-01-07T06:43:12.949Z,992.64
2023-01-07T06:44:12.977Z,992.63
2023-01-07T06:45:12.937Z,992.65
2023-01-07T06:46:12.994Z,992.65
2023-01-07T06:47:12.908Z,992.61
2023-01-07T06:48:12.930Z,992.61
2023-01-07T06:49:12.889Z,992.64
2023-01-07T06:50:12.868Z,992.60
2023-01-07T06:51:12.946Z,992.57
2023-01-07T06:52:12.842Z,992.57
2023-01-07T06:53:12.855Z,992.57
2023-01-07T06:54:12.862Z,992.60
2023-01-07T06:55:12.837Z,992.58
2023-01-07T06:56:12.816Z,992.59
2023-01-07T06:57:12.854Z,992.56
2023-01-07T06:58:12.804Z,992.57
2023-01-07T06:59:12.815Z,992.55
2023-01-07T07:00:12.796Z,992.60
2023-01-07T07:01:12.890Z,992.60
2023-01-07T07:02:12.785Z,992.54
2023-01-07T07:03:12.815Z,992.54
2023-01-07T07:04:12.717Z,992.51
2023-01-07T07:05:12.762Z,992.55
2023-01-07T07:06:12.687Z,992.54
2023-01-07T07:07:12.707Z,992.52
2023-01-07T07:08:12.679Z,992.53
2023-01-07T07:09:12.679Z,992.54
2023-01-07T07:10:12.668Z,992.55
2023-01-07T07:11:12.713Z,992.53
2023-01-07T07:12:12.640Z,992.51
2023-01-07T07:13:12.641Z,992.51
2023-01-07T07:14:12.610Z,992.51
2023-01-07T07:15:12.655Z,992.45
2023-01-07T07:16:12.733Z,992.56
2023-01-07T07:17:12.633Z,992.44
2023-01-07T07:18:12.619Z,992.44
2023-01-07T07:19:12.598Z,992.45
2023-01-07T07:20:12.552Z,992.40
2023-01-07T07:21:12.568Z,992.44
2023-01-07T07:22:12.536Z,992.40
2023-01-07T07:23:12.579Z,992.45
2023-01-07T07:24:12.532Z,992.45
2023-01-07T07:25:12.528Z,992.44
2023-01-07T07:26:12.517Z,992.47
2023-01-07T07:27:12.499Z,992.50
2023-01-07T07:28:12.497Z,992.44
2023-01-07T07:29:12.438Z,992.43
2023-01-07T07:30:12.479Z,992.54
2023-01-07T07:31:12.496Z,992.46
2023-01-07T07:32:12.426Z,992.41
2023-01-07T07:33:12.449Z,992.39
2023-01-07T07:34:12.420Z,992.39
2023-01-07T07:35:12.424Z,992.39
2023-01-07T07:36:12.430Z,992.43
2023-01-07T07:37:12.444Z,992.41
2023-01-07T07:38:12.374Z,992.39
2023-01-07T07:39:12.375Z,992.38
2023-01-07T07:40:12.340Z,992.41
2023-01-07T07:41:12.358Z,992.39
2023-01-07T07:42:12.364Z,992.37
2023-01-07T07:43:13.151Z,992.37
2023-01-07T07:44:12.314Z,992.38
2023-01-07T07:45:12.323Z,992.36
2023-01-07T07:46:12.364Z,992.36
2023-01-07T07:47:12.322Z,992.42
2023-01-07T07:48:12.378Z,992.33
2023-01-07T07:49:12.297Z,992.40
2023-01-07T07:50:12.247Z,992.34
2023-01-07T07:51:12.269Z,992.31
2023-01-07T07:52:12.207Z,992.31
2023-01-07T07:53:12.194Z,992.32
2023-01-07T07:54:12.164Z,992.30
2023-01-07T07:55:20.282Z,992.29
2023-01-07T07:56:13.139Z,992.29
2023-01-07T07:57:12.193Z,992.36
2023-01-07T07:58:12.126Z,992.27
2023-01-07T07:59:12.137Z,992.27
2023-01-07T08:00:12.090Z,992.29
2023-01-07T08:01:12.215Z,992.27
2023-01-07T08:02:12.182Z,992.23
2023-01-07T08:03:12.169Z,992.23
2023-01-07T08:04:12.438Z,992.23
2023-01-07T08:05:12.112Z,992.25
2023-01-07T08:06:12.273Z,992.18
2023-01-07T08:07:12.089Z,992.21
2023-01-07T08:08:12.082Z,992.17
2023-01-07T08:09:12.087Z,992.17
2023-01-07T08:10:12.052Z,992.20
2023-01-07T08:11:12.084Z,992.20
2023-01-07T08:12:12.027Z,992.17
2023-01-07T08:13:12.011Z,992.13
2023-01-07T08:14:12.011Z,992.15
2023-01-07T08:15:12.037Z,992.12
2023-01-07T08:16:12.357Z,992.17
2023-01-07T08:17:11.970Z,992.12
2023-01-07T08:18:11.981Z,992.15
2023-01-07T08:19:11.970Z,992.13
2023-01-07T08:20:11.942Z,992.15
2023-01-07T08:21:11.918Z,992.13
2023-01-07T08:22:11.888Z,992.16
2023-01-07T08:23:11.933Z,992.13
2023-01-07T08:24:11.851Z,992.13
2023-01-07T08:25:11.851Z,992.11
2023-01-07T08:26:16.701Z,992.07
2023-01-07T08:27:11.942Z,992.08
2023-01-07T08:28:11.826Z,992.03
2023-01-07T08:29:11.807Z,992.07
2023-01-07T08:30:11.784Z,992.02
2023-01-07T08:31:11.862Z,991.99
2023-01-07T08:32:11.770Z,991.99
2023-01-07T08:33:11.808Z,992.01
2023-01-07T08:34:11.760Z,991.94
2023-01-07T08:35:11.768Z,991.96
2023-01-07T08:36:22.844Z,991.94
2023-01-07T08:37:14.403Z,991.98
2023-01-07T08:38:11.726Z,991.92
2023-01-07T08:39:11.680Z,991.92
2023-01-07T08:40:11.700Z,991.95
2023-01-07T08:41:11.671Z,991.92
2023-01-07T08:42:11.677Z,991.95
2023-01-07T08:43:11.659Z,991.88
2023-01-07T08:44:11.648Z,991.91
2023-01-07T08:45:11.656Z,991.98
2023-01-07T08:46:11.631Z,991.95
2023-01-07T08:47:11.602Z,991.93
2023-01-07T08:48:11.656Z,991.91
2023-01-07T08:49:11.951Z,991.94
2023-01-07T08:50:11.600Z,991.92
2023-01-07T08:51:11.598Z,991.95
2023-01-07T08:52:11.601Z,991.89
2023-01-07T08:53:11.550Z,991.83
2023-01-07T08:54:11.554Z,991.86
2023-01-07T08:55:11.529Z,991.85
2023-01-07T08:56:16.257Z,991.87
2023-01-07T08:57:11.898Z,991.81
2023-01-07T08:58:11.499Z,991.86
2023-01-07T08:59:11.497Z,991.82
2023-01-07T09:00:11.498Z,991.79
2023-01-07T09:01:11.631Z,991.82
2023-01-07T09:02:11.697Z,991.85
2023-01-07T09:03:11.458Z,991.80
2023-01-07T09:04:11.489Z,991.71
2023-01-07T09:05:11.453Z,991.75
2023-01-07T09:06:11.432Z,991.70
2023-01-07T09:07:11.416Z,991.77
2023-01-07T09:08:11.923Z,991.80
2023-01-07T09:10:08.094Z,991.75
2023-01-07T09:11:08.088Z,991.75
2023-01-07T09:12:10.757Z,991.80
2023-01-07T09:13:08.068Z,991.72
2023-01-07T09:14:08.027Z,991.75
2023-01-07T09:15:08.015Z,991.75
2023-01-07T09:16:08.088Z,991.73
2023-01-07T09:17:08.106Z,991.72
2023-01-07T09:18:08.023Z,991.72
2023-01-07T09:19:08.017Z,991.68
2023-01-07T09:20:07.952Z,991.74
2023-01-07T09:21:08.026Z,991.74
2023-01-07T09:22:07.933Z,991.70
2023-01-07T09:23:07.948Z,991.78
2023-01-07T09:24:07.901Z,991.77
2023-01-07T09:25:07.945Z,991.72
2023-01-07T09:26:07.880Z,991.73
2023-01-07T09:27:07.888Z,991.71
2023-01-07T09:28:07.866Z,991.71
2023-01-07T09:29:07.911Z,991.78
2023-01-07T09:30:07.860Z,991.72
2023-01-07T09:31:07.864Z,991.75
2023-01-07T09:32:07.843Z,991.74
2023-01-07T09:33:07.843Z,991.70
2023-01-07T09:34:07.811Z,991.72
2023-01-07T09:35:07.823Z,991.72
2023-01-07T09:36:07.796Z,991.73
2023-01-07T09:37:07.815Z,991.66
2023-01-07T09:38:07.781Z,991.66
2023-01-07T09:39:07.773Z,991.73
2023-01-07T09:40:07.777Z,991.69
2023-01-07T09:41:07.770Z,991.67
2023-01-07T09:42:07.762Z,991.69
2023-01-07T09:43:07.741Z,991.65
2023-01-07T09:44:07.701Z,991.64
2023-01-07T09:45:07.719Z,991.64
2023-01-07T09:46:07.788Z,991.62
2023-01-07T09:47:07.732Z,991.61
2023-01-07T09:48:07.683Z,991.61
2023-01-07T09:49:07.706Z,991.60
2023-01-07T09:50:07.667Z,991.59
2023-01-07T09:51:07.693Z,991.61
2023-01-07T09:52:07.653Z,991.57
2023-01-07T09:53:07.661Z,991.51
2023-01-07T09:54:07.619Z,991.54
2023-01-07T09:55:07.621Z,991.53
2023-01-07T09:56:12.491Z,991.57
2023-01-07T09:57:08.645Z,991.51
2023-01-07T09:58:07.597Z,991.52
2023-01-07T09:59:07.572Z,991.52
2023-01-07T10:00:07.561Z,991.55
2023-01-07T10:01:07.596Z,991.58
2023-01-07T10:02:07.561Z,991.53
2023-01-07T10:03:07.542Z,991.52
2023-01-07T10:04:07.543Z,991.49
2023-01-07T10:05:07.544Z,991.55
2023-01-07T10:06:07.506Z,991.51
2023-01-07T10:07:07.520Z,991.52
2023-01-07T10:08:29.435Z,991.47
2023-01-07T10:09:08.512Z,991.47
2023-01-07T10:10:07.451Z,991.46
2023-01-07T10:11:07.486Z,991.43
2023-01-07T10:12:07.493Z,991.46
2023-01-07T10:13:07.457Z,991.44
2023-01-07T10:14:07.421Z,991.44
2023-01-07T10:15:07.410Z,991.42
2023-01-07T10:16:07.451Z,991.44
2023-01-07T10:17:07.409Z,991.39
2023-01-07T10:18:10.243Z,991.42
2023-01-07T10:19:07.388Z,991.42
2023-01-07T10:20:07.402Z,991.36
2023-01-07T10:21:07.384Z,991.37
2023-01-07T10:22:07.323Z,991.37
2023-01-07T10:23:07.357Z,991.39
2023-01-07T10:24:07.363Z,991.35
2023-01-07T10:25:07.325Z,991.32
2023-01-07T10:26:07.294Z,991.32
2023-01-07T10:27:07.357Z,991.28
2023-01-07T10:28:07.305Z,991.32
2023-01-07T10:29:07.318Z,991.28
2023-01-07T10:30:07.274Z,991.24
2023-01-07T10:31:07.248Z,991.24
2023-01-07T10:32:07.257Z,991.21
2023-01-07T10:33:07.238Z,991.19
2023-01-07T10:34:07.230Z,991.14
2023-01-07T10:35:07.227Z,991.14
2023-01-07T10:36:07.186Z,991.13
2023-01-07T10:37:07.223Z,991.10
2023-01-07T10:38:07.201Z,991.09
2023-01-07T10:39:07.162Z,991.06
2023-01-07T10:40:07.162Z,991.03
2023-01-07T10:41:07.142Z,991.00
2023-01-07T10:42:07.124Z,991.02
2023-01-07T10:43:07.169Z,991.02
2023-01-07T10:44:07.106Z,991.01
2023-01-07T10:45:07.127Z,990.95
2023-01-07T10:46:08.585Z,990.93
2023-01-07T10:47:07.101Z,990.90
2023-01-07T10:48:07.108Z,990.86
2023-01-07T10:49:07.118Z,990.86
2023-01-07T10:50:07.080Z,990.84
2023-01-07T10:51:07.079Z,990.86
2023-01-07T10:52:07.057Z,990.82
2023-01-07T10:53:07.042Z,990.82
2023-01-07T10:54:07.045Z,990.76
2023-01-07T10:55:07.058Z,990.71
2023-01-07T10:56:07.042Z,990.70
2023-01-07T10:57:07.003Z,990.68
2023-01-07T10:58:06.955Z,990.69
2023-01-07T10:59:06.983Z,990.67
2023-01-07T11:00:06.952Z,990.61
2023-01-07T11:01:07.177Z,990.64
2023-01-07T11:02:07.251Z,990.62
2023-01-07T11:03:07.052Z,990.63
2023-01-07T11:04:06.946Z,990.60
2023-01-07T11:05:06.916Z,990.58
2023-01-07T11:06:06.877Z,990.52
2023-01-07T11:07:06.905Z,990.55
2023-01-07T11:08:06.856Z,990.53
2023-01-07T11:09:06.862Z,990.47
2023-01-07T11:10:06.874Z,990.43
2023-01-07T11:11:06.849Z,990.41
2023-01-07T11:12:06.869Z,990.40
2023-01-07T11:13:06.828Z,990.38
2023-01-07T11:14:06.809Z,990.37
2023-01-07T11:15:06.852Z,990.35
2023-01-07T11:16:06.815Z,990.34
2023-01-07T11:17:06.838Z,990.39
2023-01-07T11:18:06.794Z,990.38
2023-01-07T11:19:06.827Z,990.31
2023-01-07T11:20:06.737Z,990.34
2023-01-07T11:21:06.881Z,990.28
2023-01-07T11:22:06.748Z,990.30
2023-01-07T11:23:06.747Z,990.31
2023-01-07T11:24:06.715Z,990.29
2023-01-07T11:25:06.727Z,990.27
2023-01-07T11:26:21.368Z,990.22
2023-01-07T11:27:06.704Z,990.21
2023-01-07T11:28:06.697Z,990.22
2023-01-07T11:29:06.673Z,990.18
2023-01-07T11:30:06.664Z,990.15
2023-01-07T11:31:06.662Z,990.15
2023-01-07T11:32:06.637Z,990.15
2023-01-07T11:33:06.679Z,990.17
2023-01-07T11:34:06.635Z,990.12
2023-01-07T11:35:06.630Z,990.16
2023-01-07T11:36:06.614Z,990.16
2023-01-07T11:37:06.590Z,990.12
2023-01-07T11:38:06.555Z,990.14
2023-01-07T11:39:06.575Z,990.04
2023-01-07T11:40:06.566Z,989.99
2023-01-07T11:41:06.535Z,989.97
2023-01-07T11:42:06.541Z,989.95
2023-01-07T11:43:06.560Z,989.93
2023-01-07T11:44:06.496Z,989.87
2023-01-07T11:45:06.505Z,989.89
2023-01-07T11:46:20.983Z,989.88
2023-01-07T11:47:07.508Z,989.89
2023-01-07T11:48:06.505Z,989.86
2023-01-07T11:49:06.503Z,989.85
2023-01-07T11:50:06.467Z,989.82
2023-01-07T11:51:06.435Z,989.83
2023-01-07T11:52:06.425Z,989.80
2023-01-07T11:53:06.461Z,989.80
2023-01-07T11:54:06.406Z,989.72
2023-01-07T11:55:06.428Z,989.70
2023-01-07T11:56:06.389Z,989.71
2023-01-07T11:57:06.402Z,989.71
2023-01-07T11:58:28.586Z,989.68
2023-01-07T11:59:07.429Z,989.67
2023-01-07T12:00:06.341Z,989.63
2023-01-07T12:01:06.412Z,989.59
2023-01-07T12:02:06.430Z,989.57
2023-01-07T12:03:06.351Z,989.51
2023-01-07T12:04:06.298Z,989.57
2023-01-07T12:05:06.285Z,989.45
2023-01-07T12:06:06.282Z,989.48
2023-01-07T12:07:06.323Z,989.42
2023-01-07T12:08:06.436Z,989.50
2023-01-07T12:09:06.237Z,989.42
2023-01-07T12:10:06.249Z,989.40
2023-01-07T12:11:06.250Z,989.37
2023-01-07T12:12:06.278Z,989.36
2023-01-07T12:13:06.224Z,989.39
2023-01-07T12:14:06.285Z,989.29
2023-01-07T12:15:06.213Z,989.27
2023-01-07T12:16:06.188Z,989.19
2023-01-07T12:17:06.211Z,989.26
2023-01-07T12:18:06.166Z,989.19
2023-01-07T12:19:06.158Z,989.16
2023-01-07T12:20:06.166Z,989.16
2023-01-07T12:21:06.138Z,989.14
2023-01-07T12:22:06.131Z,989.07
2023-01-07T12:23:06.123Z,989.09
2023-01-07T12:24:06.145Z,989.09
2023-01-07T12:25:06.107Z,989.06
2023-01-07T12:26:06.111Z,989.08
2023-01-07T12:27:06.155Z,989.06
2023-01-07T12:28:06.133Z,988.99
2023-01-07T12:29:06.062Z,988.90
2023-01-07T12:30:06.101Z,988.90